createdAt,value
2022-10-26T00:02:54.289Z,100247.44
2022-10-26T00:06:56.318Z,100248.25
2022-10-26T00:10:58.339Z,100259.69
2022-10-26T00:15:00.728Z,100272.06
2022-10-26T00:19:10.097Z,100255.72
2022-10-26T00:23:11.890Z,100266.03
2022-10-26T00:27:13.856Z,100275.78
2022-10-26T00:31:16.573Z,100270.56
2022-10-26T00:35:23.351Z,100271.38
2022-10-26T00:39:26.143Z,100276.59
2022-10-26T00:43:27.993Z,100276.47
2022-10-26T00:47:43.279Z,100261.47
2022-10-26T00:51:51.149Z,100275.78
2022-10-26T00:55:53.163Z,100273.03
2022-10-26T00:59:55.003Z,100275.91
2022-10-26T01:03:57.148Z,100272.75
2022-10-26T01:07:59.193Z,100276.34
2022-10-26T01:12:01.148Z,100255.97
2022-10-26T01:16:13.096Z,100274.69
2022-10-26T01:20:23.401Z,100270.81
2022-10-26T01:24:31.347Z,100267.09
2022-10-26T01:28:58.612Z,100258.59
2022-10-26T01:33:33.613Z,100255.41
2022-10-26T01:37:39.366Z,100259.63
2022-10-26T01:41:48.647Z,100266.50
2022-10-26T01:45:50.546Z,100248.06
2022-10-26T01:49:55.477Z,100264.41
2022-10-26T01:53:58.376Z,100263.84
2022-10-26T01:58:16.052Z,100258.34
2022-10-26T02:02:48.968Z,100259.44
2022-10-26T02:07:27.972Z,100267.25
2022-10-26T02:11:42.367Z,100260.91
2022-10-26T02:16:17.918Z,100260.81
2022-10-26T02:20:35.961Z,100253.47
2022-10-26T02:24:37.947Z,100254.41
2022-10-26T02:28:46.682Z,100244.69
2022-10-26T02:32:51.737Z,100249.22
2022-10-26T02:36:54.699Z,100246.47
2022-10-26T02:40:56.693Z,100248.69
2022-10-26T02:45:03.377Z,100242.31
2022-10-26T02:49:05.341Z,100243.94
2022-10-26T02:53:17.874Z,100243.63
2022-10-26T02:57:39.821Z,100243.91
2022-10-26T03:01:41.800Z,100251.81
2022-10-26T03:05:43.852Z,100245.72
2022-10-26T03:09:45.765Z,100249.91
2022-10-26T03:13:47.620Z,100236.03
2022-10-26T03:17:49.579Z,100246.97
2022-10-26T03:21:51.642Z,100252.91
2022-10-26T03:25:57.944Z,100249.84
2022-10-26T03:29:59.850Z,100248.47
2022-10-26T03:34:01.768Z,100248.50
2022-10-26T03:38:03.725Z,100252.63
2022-10-26T03:42:05.717Z,100249.47
2022-10-26T03:46:07.672Z,100245.44
2022-10-26T03:50:10.794Z,100246.03
2022-10-26T03:54:12.693Z,100253.81
2022-10-26T03:58:14.813Z,100249.28
2022-10-26T04:02:16.957Z,100255.66
2022-10-26T04:06:18.881Z,100243.56
2022-10-26T04:10:21.093Z,100242.44
2022-10-26T04:14:26.148Z,100250.50
2022-10-26T04:18:29.530Z,100249.41
2022-10-26T04:22:31.396Z,100253.38
2022-10-26T04:26:33.344Z,100251.22
2022-10-26T04:30:36.016Z,100235.56
2022-10-26T04:34:38.024Z,100246.81
2022-10-26T04:38:39.917Z,100249.09
2022-10-26T04:42:46.540Z,100243.47
2022-10-26T04:46:48.824Z,100230.66
2022-10-26T04:50:50.644Z,100237.72
2022-10-26T04:54:52.707Z,100237.09
2022-10-26T04:58:54.933Z,100238.13
2022-10-26T05:03:03.520Z,100232.41
2022-10-26T05:07:05.402Z,100232.41
2022-10-26T05:11:07.541Z,100227.78
2022-10-26T05:15:12.008Z,100229.31
2022-10-26T05:19:17.172Z,100219.41
2022-10-26T05:23:19.115Z,100225.16
2022-10-26T05:32:19.472Z,100224.03
2022-10-26T05:36:37.454Z,100222.91
2022-10-26T05:40:56.013Z,100228.94
2022-10-26T05:44:57.887Z,100235.44
2022-10-26T05:48:59.844Z,100234.25
2022-10-26T05:53:01.709Z,100246.78
2022-10-26T05:57:04.085Z,100245.84
2022-10-26T06:01:26.694Z,100249.75
2022-10-26T06:05:29.649Z,100246.34
2022-10-26T06:09:36.645Z,100262.78
2022-10-26T06:13:38.810Z,100259.16
2022-10-26T06:18:09.098Z,100269.66
2022-10-26T06:22:49.593Z,100264.00
2022-10-26T06:27:04.761Z,100269.69
2022-10-26T06:31:06.981Z,100272.50
2022-10-26T06:35:31.230Z,100271.81
2022-10-26T06:39:37.495Z,100264.16
2022-10-26T06:43:39.845Z,100259.16
2022-10-26T06:48:11.320Z,100258.19
2022-10-26T06:52:42.556Z,100257.63
2022-10-26T06:56:44.753Z,100256.47
2022-10-26T07:00:49.165Z,100250.19
2022-10-26T07:04:51.324Z,100245.03
2022-10-26T07:08:53.515Z,100249.66
2022-10-26T07:12:55.836Z,100252.09
2022-10-26T07:16:57.992Z,100243.69
2022-10-26T07:21:05.012Z,100246.31
2022-10-26T07:25:08.181Z,100234.28
2022-10-26T07:29:10.193Z,100244.03
2022-10-26T07:33:13.869Z,100242.31
2022-10-26T07:37:18.798Z,100247.63
2022-10-26T07:41:20.953Z,100249.38
2022-10-26T07:45:22.960Z,100242.31
2022-10-26T07:49:27.604Z,100238.81
2022-10-26T07:58:36.677Z,100244.13
2022-10-26T08:02:38.632Z,100240.53
2022-10-26T08:06:41.951Z,100245.47
2022-10-26T08:10:45.050Z,100259.53
2022-10-26T08:14:47.017Z,100259.84
2022-10-26T08:18:54.554Z,100258.06
2022-10-26T08:23:00.606Z,100243.06
2022-10-26T08:27:02.611Z,100252.59
2022-10-26T08:31:07.886Z,100268.16
2022-10-26T08:35:10.402Z,100252.81
2022-10-26T08:40:27.087Z,100238.72
2022-10-26T08:44:48.020Z,100257.69
2022-10-26T08:48:54.714Z,100247.13
2022-10-26T08:53:23.858Z,100242.66
2022-10-26T08:57:29.056Z,100241.41
2022-10-26T09:01:32.389Z,100239.06
2022-10-26T09:05:53.134Z,100245.56
2022-10-26T09:11:02.488Z,100233.97
2022-10-26T09:15:55.123Z,100241.06
2022-10-26T09:20:10.410Z,100245.28
2022-10-26T09:24:52.587Z,100232.00
2022-10-26T09:29:07.381Z,100236.63
2022-10-26T09:33:47.420Z,100221.47
2022-10-26T09:38:36.731Z,100234.31
2022-10-26T09:43:00.786Z,100242.19
2022-10-26T09:47:18.940Z,100227.06
2022-10-26T09:51:20.910Z,100232.31
2022-10-26T09:55:23.121Z,100232.00
2022-10-26T09:59:25.153Z,100228.22
2022-10-26T10:03:32.798Z,100238.91
2022-10-26T10:07:41.845Z,100229.69
2022-10-26T10:16:30.822Z,100218.28
2022-10-26T10:20:51.732Z,100223.78
2022-10-26T10:32:04.877Z,100220.59
2022-10-26T10:37:35.925Z,100218.06
2022-10-26T10:41:54.510Z,100220.00
2022-10-26T10:45:59.653Z,100214.47
2022-10-26T10:50:17.212Z,100202.13
2022-10-26T11:00:06.082Z,100195.41
2022-10-26T11:04:34.314Z,100187.38
2022-10-26T11:09:06.561Z,100202.91
2022-10-26T11:13:21.155Z,100196.97
2022-10-26T11:33:00.518Z,100180.91
2022-10-26T11:41:51.511Z,100179.19
2022-10-26T11:46:20.634Z,100183.16
2022-10-26T11:50:29.473Z,100190.81
2022-10-26T11:54:55.918Z,100182.97
2022-10-26T12:04:38.665Z,100175.25
2022-10-26T12:09:35.694Z,100187.59
2022-10-26T12:26:39.965Z,100188.44
2022-10-26T12:30:45.670Z,100190.50
2022-10-26T12:35:31.091Z,100189.44
2022-10-26T12:40:33.606Z,100182.53
2022-10-26T12:44:48.030Z,100181.72
2022-10-26T12:48:51.075Z,100180.53
2022-10-26T12:53:30.171Z,100193.38
2022-10-26T12:57:58.583Z,100188.03
2022-10-26T13:02:34.656Z,100190.09
2022-10-26T13:07:21.672Z,100195.19
2022-10-26T13:16:20.525Z,100191.53
2022-10-26T13:20:22.631Z,100198.66
2022-10-26T13:24:25.902Z,100193.00
2022-10-26T13:28:33.389Z,100191.81
2022-10-26T13:32:42.821Z,100195.00
2022-10-26T13:37:12.291Z,100190.41
2022-10-26T13:41:44.206Z,100190.47
2022-10-26T13:45:59.131Z,100197.63
2022-10-26T13:50:11.523Z,100198.25
2022-10-26T13:54:37.035Z,100199.09
2022-10-26T13:59:05.071Z,100197.41
2022-10-26T14:03:17.709Z,100197.41
2022-10-26T14:07:24.523Z,100204.28
2022-10-26T14:11:58.598Z,100210.66
2022-10-26T14:16:00.572Z,100196.75
2022-10-26T14:20:06.851Z,100191.69
2022-10-26T14:24:31.503Z,100199.22
2022-10-26T14:28:47.874Z,100192.88
2022-10-26T14:32:50.511Z,100210.22
2022-10-26T14:37:02.317Z,100203.06
2022-10-26T14:41:04.233Z,100210.34
2022-10-26T14:45:09.433Z,100231.19
2022-10-26T14:49:24.518Z,100230.97
2022-10-26T14:54:06.660Z,100241.84
2022-10-26T14:58:23.082Z,100240.78
2022-10-26T15:02:28.860Z,100240.63
2022-10-26T15:06:43.852Z,100238.47
2022-10-26T15:10:49.803Z,100256.13
2022-10-26T15:15:16.394Z,100249.88
2022-10-26T15:19:31.437Z,100244.94
2022-10-26T15:23:33.336Z,100245.69
2022-10-26T15:32:01.364Z,100254.13
2022-10-26T15:36:20.164Z,100268.84
2022-10-26T15:40:22.797Z,100259.47
2022-10-26T15:44:27.510Z,100259.47
2022-10-26T15:48:31.502Z,100259.13
2022-10-26T15:52:33.661Z,100292.72
2022-10-26T16:02:34.586Z,100293.69
2022-10-26T16:06:36.616Z,100311.28
2022-10-26T16:10:38.526Z,100300.06
2022-10-26T16:15:04.303Z,100297.13
2022-10-26T16:19:25.542Z,100305.34
2022-10-26T16:23:28.324Z,100306.53
2022-10-26T16:27:35.899Z,100328.59
2022-10-26T16:31:40.529Z,100323.66
2022-10-26T16:35:45.021Z,100318.09
2022-10-26T16:39:50.376Z,100308.34
2022-10-26T16:43:58.273Z,100333.88
2022-10-26T16:48:00.542Z,100336.72
2022-10-26T16:52:04.336Z,100342.47
2022-10-26T16:56:21.513Z,100347.28
2022-10-26T17:00:23.745Z,100338.88
2022-10-26T17:04:26.113Z,100337.56
2022-10-26T17:08:28.387Z,100355.53
2022-10-26T17:12:35.772Z,100349.28
2022-10-26T17:16:39.491Z,100372.16
2022-10-26T17:20:54.132Z,100372.50
2022-10-26T17:25:04.023Z,100372.34
2022-10-26T17:29:21.480Z,100376.13
2022-10-26T17:33:23.941Z,100381.22
2022-10-26T17:37:31.539Z,100405.72
2022-10-26T17:41:36.755Z,100413.31
2022-10-26T17:45:58.632Z,100416.44
2022-10-26T17:50:06.673Z,100415.97
2022-10-26T17:54:40.638Z,100438.34
2022-10-26T17:58:43.097Z,100437.00
2022-10-26T18:02:53.909Z,100432.72
2022-10-26T18:07:19.022Z,100432.34
2022-10-26T18:11:27.785Z,100444.88
2022-10-26T18:15:39.385Z,100446.53
2022-10-26T18:19:46.420Z,100453.09
2022-10-26T18:28:40.869Z,100454.94
2022-10-26T18:33:25.315Z,100469.88
2022-10-26T18:38:28.948Z,100474.13
2022-10-26T18:53:41.824Z,100492.28
2022-10-26T19:24:11.260Z,100540.25
2022-10-26T19:28:15.796Z,100535.44
2022-10-26T19:32:21.345Z,100548.38
2022-10-26T19:36:23.356Z,100553.06
2022-10-26T19:40:25.653Z,100551.00
2022-10-26T19:44:32.463Z,100564.44
2022-10-26T19:48:36.821Z,100564.75
2022-10-26T19:52:45.198Z,100579.50
2022-10-26T19:56:53.451Z,100570.31
2022-10-26T20:01:02.234Z,100579.28
2022-10-26T20:05:07.854Z,100578.41
2022-10-26T20:09:25.811Z,100594.16
2022-10-26T20:13:28.899Z,100603.78
2022-10-26T20:17:32.115Z,100603.88
2022-10-26T20:22:28.685Z,100608.16
2022-10-26T20:55:47.501Z,100632.53
2022-10-26T20:59:53.530Z,100647.00
2022-10-26T21:04:26.924Z,100645.81
2022-10-26T21:08:29.022Z,100640.31
2022-10-26T21:12:30.978Z,100655.78
2022-10-26T21:17:58.256Z,100647.69
2022-10-26T21:23:01.106Z,100659.56
2022-10-26T21:27:51.467Z,100678.19
2022-10-26T21:36:16.519Z,100670.94
2022-10-26T21:46:26.132Z,100688.91
2022-10-26T22:02:42.660Z,100684.78
2022-10-26T22:07:10.348Z,100682.03
2022-10-26T22:11:31.060Z,100695.81
2022-10-26T22:16:09.918Z,100704.44
2022-10-26T22:20:27.973Z,100695.44
2022-10-26T22:25:32.415Z,100703.63
2022-10-26T22:29:49.324Z,100700.75
2022-10-26T22:34:46.006Z,100715.66
2022-10-26T22:38:50.344Z,100709.53
2022-10-26T22:42:52.611Z,100714.22
2022-10-26T22:46:54.821Z,100700.41
2022-10-26T22:50:57.042Z,100705.53
2022-10-26T22:54:58.928Z,100713.28
2022-10-26T22:59:01.032Z,100727.50
2022-10-26T23:03:02.892Z,100727.66
2022-10-26T23:07:04.771Z,100738.25
2022-10-26T23:11:09.708Z,100733.16
2022-10-26T23:15:11.680Z,100734.00
2022-10-26T23:19:13.567Z,100731.75
2022-10-26T23:23:16.299Z,100736.75
2022-10-26T23:27:18.185Z,100744.19
2022-10-26T23:31:22.625Z,100734.94
2022-10-26T23:35:24.650Z,100748.19
2022-10-26T23:39:26.635Z,100750.41
2022-10-26T23:43:28.480Z,100765.41
2022-10-26T23:47:30.442Z,100759.78
2022-10-26T23:51:32.381Z,100749.84
2022-10-26T23:55:34.250Z,100762.94
2022-10-26T23:59:36.442Z,100759.66
